Time;durP1;ratioP1;P1;durP2;ratioP2;P2;SDS_P1;SDS_P2;PMS_P1;PMS_P2;Temp;Humidity;BMP_temperature;BMP_pressure;BME280_temperature;BME280_humidity;BME280_pressure;Samples;Min_cycle;Max_cycle;Signal;HPM_P1;HPM_P2
2021/01/16 00:00:20;;;;;;;31.87;17.20;;;;;;;;;;5081688;28;20234;-71
2021/01/16 00:02:45;;;;;;;30.47;16.17;;;;;;;;;;5077825;28;20218;-71
2021/01/16 00:05:15;;;;;;;29.80;15.87;;;;;;;;;;5083562;28;20646;-72
2021/01/16 00:07:41;;;;;;;28.93;16.57;;;;;;;;;;5077764;28;20188;-71
2021/01/16 00:10:07;;;;;;;29.67;16.70;;;;;;;;;;5083586;28;20206;-71
2021/01/16 00:12:33;;;;;;;33.13;17.53;;;;;;;;;;5078398;28;20188;-72
2021/01/16 00:14:58;;;;;;;29.13;16.87;;;;;;;;;;5069517;28;20191;-72
2021/01/16 00:17:23;;;;;;;28.60;15.57;;;;;;;;;;5075435;28;20273;-71
2021/01/16 00:19:48;;;;;;;30.63;16.20;;;;;;;;;;5083630;28;20180;-71
2021/01/16 00:22:14;;;;;;;27.87;15.70;;;;;;;;;;5075091;28;20184;-71
2021/01/16 00:24:39;;;;;;;28.57;15.13;;;;;;;;;;5083596;28;20260;-71
2021/01/16 00:27:04;;;;;;;26.57;15.43;;;;;;;;;;5082227;28;20267;-71
2021/01/16 00:29:30;;;;;;;26.13;15.70;;;;;;;;;;5079077;28;20186;-72
2021/01/16 00:31:55;;;;;;;24.90;14.67;;;;;;;;;;5068676;28;20192;-72
2021/01/16 00:34:20;;;;;;;27.77;15.83;;;;;;;;;;5077327;28;20701;-71
2021/01/16 00:36:46;;;;;;;28.47;15.63;;;;;;;;;;5088541;28;20571;-72
2021/01/16 00:39:11;;;;;;;31.00;16.23;;;;;;;;;;5058771;28;20221;-71
2021/01/16 00:41:36;;;;;;;33.50;16.77;;;;;;;;;;5048480;28;20201;-71
2021/01/16 00:44:02;;;;;;;28.80;17.00;;;;;;;;;;5057428;28;20612;-71
2021/01/16 00:46:27;;;;;;;30.37;16.67;;;;;;;;;;5050146;28;20187;-71
2021/01/16 00:48:52;;;;;;;27.40;16.83;;;;;;;;;;5059962;28;20192;-71
2021/01/16 00:51:18;;;;;;;31.83;17.77;;;;;;;;;;5069302;28;20638;-71
2021/01/16 00:53:43;;;;;;;28.37;16.20;;;;;;;;;;5057541;28;20718;-71
2021/01/16 00:56:08;;;;;;;28.57;15.90;;;;;;;;;;5066969;28;20556;-71
2021/01/16 00:58:34;;;;;;;30.40;16.03;;;;;;;;;;5069878;28;20184;-71
2021/01/16 01:00:59;;;;;;;26.03;15.60;;;;;;;;;;5060582;28;20196;-71
2021/01/16 01:03:24;;;;;;;26.10;14.43;;;;;;;;;;5066615;28;20263;-71
2021/01/16 01:05:50;;;;;;;30.27;15.90;;;;;;;;;;5062691;28;20277;-71
2021/01/16 01:08:16;;;;;;;30.23;16.77;;;;;;;;;;5067297;28;20379;-71
2021/01/16 01:10:44;;;;;;;27.10;15.33;;;;;;;;;;5060037;28;20188;-71
2021/01/16 01:13:09;;;;;;;26.90;15.80;;;;;;;;;;5067018;28;20216;-71
2021/01/16 01:15:36;;;;;;;25.90;14.90;;;;;;;;;;5061130;28;20215;-72
2021/01/16 01:18:02;;;;;;;26.60;16.17;;;;;;;;;;5068056;28;20189;-71
2021/01/16 01:20:30;;;;;;;29.50;16.40;;;;;;;;;;5053618;28;20632;-71
2021/01/16 01:22:56;;;;;;;28.50;16.40;;;;;;;;;;5060786;28;20185;-71
2021/01/16 01:25:23;;;;;;;27.23;15.97;;;;;;;;;;5046827;28;20217;-71
2021/01/16 01:28:01;;;;;;;29.00;16.07;;;;;;;;;;5058221;28;20185;-72
2021/01/16 01:30:29;;;;;;;25.77;15.60;;;;;;;;;;5050780;28;20193;-71
2021/01/16 01:32:55;;;;;;;29.93;16.37;;;;;;;;;;5058065;28;20274;-71
2021/01/16 01:35:21;;;;;;;31.40;16.83;;;;;;;;;;5058617;28;20181;-71
2021/01/16 01:37:52;;;;;;;23.23;14.63;;;;;;;;;;5055775;28;20229;-71
2021/01/16 01:40:19;;;;;;;26.87;14.13;;;;;;;;;;5074990;28;20182;-71
2021/01/16 01:42:50;;;;;;;25.47;14.10;;;;;;;;;;5066515;28;20177;-71
2021/01/16 01:45:16;;;;;;;26.43;14.67;;;;;;;;;;5086576;28;20205;-71
2021/01/16 01:47:43;;;;;;;26.17;13.83;;;;;;;;;;5077872;28;20241;-72
2021/01/16 01:50:12;;;;;;;26.73;14.27;;;;;;;;;;5085808;28;20647;-71
2021/01/16 01:52:38;;;;;;;24.83;13.80;;;;;;;;;;5077293;28;20184;-71
2021/01/16 01:55:06;;;;;;;26.00;14.03;;;;;;;;;;5087051;28;21484;-71
2021/01/16 01:57:33;;;;;;;27.00;15.03;;;;;;;;;;5057395;28;20180;-71
2021/01/16 02:00:00;;;;;;;31.47;15.30;;;;;;;;;;5084438;28;20265;-72
2021/01/16 02:02:26;;;;;;;26.00;14.87;;;;;;;;;;5074523;28;20575;-71
2021/01/16 02:04:54;;;;;;;27.10;14.17;;;;;;;;;;5061737;28;20200;-71
2021/01/16 02:07:25;;;;;;;23.27;13.60;;;;;;;;;;5076912;28;20608;-71
2021/01/16 02:09:51;;;;;;;28.03;14.70;;;;;;;;;;5085861;28;20184;-72
2021/01/16 02:12:17;;;;;;;25.43;13.83;;;;;;;;;;5085000;28;20712;-71
2021/01/16 02:14:49;;;;;;;26.70;13.43;;;;;;;;;;5076007;28;20324;-71
2021/01/16 02:17:21;;;;;;;24.23;12.83;;;;;;;;;;5087544;28;20208;-72
2021/01/16 02:20:06;;;;;;;27.67;14.33;;;;;;;;;;5076413;28;20670;-71
2021/01/16 02:22:42;;;;;;;23.53;13.67;;;;;;;;;;5068175;28;20187;-71
2021/01/16 02:25:14;;;;;;;23.67;13.43;;;;;;;;;;5076707;28;20218;-71
2021/01/16 02:27:48;;;;;;;23.80;13.53;;;;;;;;;;5087610;28;20298;-71
2021/01/16 02:30:14;;;;;;;25.13;13.73;;;;;;;;;;5075688;28;20806;-71
2021/01/16 02:32:45;;;;;;;24.53;13.00;;;;;;;;;;5084498;28;20179;-72
2021/01/16 02:35:12;;;;;;;23.00;12.73;;;;;;;;;;5077483;28;20176;-71
2021/01/16 02:38:04;;;;;;;25.10;14.07;;;;;;;;;;5083890;28;20216;-71
2021/01/16 02:40:40;;;;;;;28.47;14.47;;;;;;;;;;5075637;28;20207;-71
2021/01/16 02:43:10;;;;;;;24.47;13.53;;;;;;;;;;5086047;28;20218;-71
2021/01/16 02:45:44;;;;;;;24.87;14.10;;;;;;;;;;5077324;28;20633;-71
2021/01/16 02:48:38;;;;;;;24.17;13.40;;;;;;;;;;5082757;28;20192;-72
2021/01/16 02:51:06;;;;;;;24.90;13.57;;;;;;;;;;5076064;28;20200;-71
2021/01/16 02:53:35;;;;;;;23.97;14.00;;;;;;;;;;5069094;28;20629;-71
2021/01/16 02:56:11;;;;;;;24.20;14.70;;;;;;;;;;5073590;28;20595;-71
2021/01/16 02:58:37;;;;;;;25.03;13.43;;;;;;;;;;5082561;28;20646;-72
2021/01/16 03:01:02;;;;;;;23.13;13.63;;;;;;;;;;5078681;28;20190;-71
2021/01/16 03:03:29;;;;;;;25.00;13.77;;;;;;;;;;5085576;28;20219;-71
2021/01/16 03:05:54;;;;;;;23.33;12.80;;;;;;;;;;5077443;28;20208;-71
2021/01/16 03:08:20;;;;;;;24.27;12.53;;;;;;;;;;5084741;28;20544;-71
2021/01/16 03:10:46;;;;;;;21.10;12.20;;;;;;;;;;5078373;28;20618;-71
2021/01/16 03:13:12;;;;;;;24.47;14.40;;;;;;;;;;5085015;28;20572;-71
2021/01/16 03:15:39;;;;;;;24.33;14.07;;;;;;;;;;5072538;28;20199;-72
2021/01/16 03:18:07;;;;;;;26.07;13.07;;;;;;;;;;5077465;28;20586;-72
2021/01/16 03:20:32;;;;;;;24.20;13.83;;;;;;;;;;5083497;28;20643;-72
2021/01/16 03:23:02;;;;;;;22.07;13.40;;;;;;;;;;5057544;28;20199;-72
2021/01/16 03:25:30;;;;;;;26.23;13.47;;;;;;;;;;5087618;28;20612;-72
2021/01/16 03:27:56;;;;;;;24.63;13.67;;;;;;;;;;5076439;28;20180;-72
2021/01/16 03:30:23;;;;;;;21.80;13.47;;;;;;;;;;5087678;28;20169;-72
2021/01/16 03:32:51;;;;;;;24.83;13.83;;;;;;;;;;5074537;28;20192;-72
2021/01/16 03:35:20;;;;;;;23.70;13.13;;;;;;;;;;5085072;28;20173;-72
2021/01/16 03:37:47;;;;;;;26.60;13.80;;;;;;;;;;5057159;28;20231;-72
2021/01/16 03:40:13;;;;;;;21.87;13.13;;;;;;;;;;5084717;28;20183;-71
2021/01/16 03:42:39;;;;;;;26.00;13.27;;;;;;;;;;5058037;28;20195;-71
2021/01/16 03:45:11;;;;;;;27.00;14.47;;;;;;;;;;5088011;28;20192;-70
2021/01/16 03:47:37;;;;;;;24.70;13.20;;;;;;;;;;5074586;28;20270;-71
2021/01/16 03:50:04;;;;;;;25.80;13.83;;;;;;;;;;5085304;28;20586;-71
2021/01/16 03:52:35;;;;;;;25.50;13.07;;;;;;;;;;5082427;28;20180;-71
2021/01/16 03:55:00;;;;;;;24.43;13.77;;;;;;;;;;5084405;28;20212;-71
2021/01/16 03:57:26;;;;;;;26.23;14.87;;;;;;;;;;5084911;28;20670;-71
2021/01/16 03:59:52;;;;;;;26.43;13.60;;;;;;;;;;5062066;28;20188;-71
2021/01/16 04:02:18;;;;;;;25.80;13.83;;;;;;;;;;5085050;28;20187;-71
2021/01/16 04:04:48;;;;;;;27.07;15.17;;;;;;;;;;5079031;28;20755;-71
2021/01/16 04:07:13;;;;;;;24.13;14.27;;;;;;;;;;5085264;28;20204;-71
2021/01/16 04:09:40;;;;;;;25.63;14.77;;;;;;;;;;5083197;28;20180;-71
2021/01/16 04:12:06;;;;;;;25.33;14.93;;;;;;;;;;5089060;28;20647;-71
2021/01/16 04:14:31;;;;;;;27.13;15.67;;;;;;;;;;5080700;28;20216;-70
2021/01/16 04:16:57;;;;;;;29.17;16.27;;;;;;;;;;5088293;28;20670;-70
2021/01/16 04:19:22;;;;;;;26.93;16.13;;;;;;;;;;5064086;28;20192;-70
2021/01/16 04:21:47;;;;;;;28.27;15.57;;;;;;;;;;5086123;28;20665;-70
2021/01/16 04:24:14;;;;;;;24.43;14.97;;;;;;;;;;5090754;28;20196;-70
2021/01/16 04:26:39;;;;;;;28.03;15.23;;;;;;;;;;5079070;28;20172;-70
2021/01/16 04:29:05;;;;;;;27.63;15.90;;;;;;;;;;5088742;28;20198;-70
2021/01/16 04:31:30;;;;;;;27.20;14.70;;;;;;;;;;5061828;28;20203;-70
2021/01/16 04:33:55;;;;;;;25.73;13.57;;;;;;;;;;5086782;28;20192;-70
2021/01/16 04:36:21;;;;;;;27.23;15.10;;;;;;;;;;5079913;28;20184;-70
2021/01/16 04:38:46;;;;;;;26.77;14.83;;;;;;;;;;5088659;28;20216;-70
2021/01/16 04:41:13;;;;;;;26.90;14.67;;;;;;;;;;5078155;28;20246;-70
2021/01/16 04:43:40;;;;;;;23.77;13.80;;;;;;;;;;5083037;28;20195;-70
2021/01/16 04:46:06;;;;;;;28.50;15.63;;;;;;;;;;5077534;28;20587;-70
2021/01/16 04:48:36;;;;;;;27.47;16.03;;;;;;;;;;5089006;28;20192;-70
2021/01/16 04:51:03;;;;;;;26.67;14.87;;;;;;;;;;5079080;28;20281;-70
2021/01/16 04:53:40;;;;;;;26.47;14.57;;;;;;;;;;5081887;28;20199;-70
2021/01/16 04:56:09;;;;;;;26.53;15.03;;;;;;;;;;5076601;28;20261;-70
2021/01/16 04:58:36;;;;;;;28.93;15.63;;;;;;;;;;5078011;28;20180;-70
2021/01/16 05:01:04;;;;;;;26.23;15.27;;;;;;;;;;5086165;28;20184;-70
2021/01/16 05:03:41;;;;;;;26.80;15.13;;;;;;;;;;5077555;28;20645;-70
2021/01/16 05:06:10;;;;;;;26.13;14.87;;;;;;;;;;5088837;28;20566;-70
2021/01/16 05:08:40;;;;;;;26.10;14.37;;;;;;;;;;5076712;28;20188;-70
2021/01/16 05:11:14;;;;;;;26.27;14.00;;;;;;;;;;5088236;28;20184;-70
2021/01/16 05:13:45;;;;;;;28.00;15.37;;;;;;;;;;5078936;28;20203;-70
2021/01/16 05:16:12;;;;;;;25.77;14.50;;;;;;;;;;5089147;28;20202;-70
2021/01/16 05:18:40;;;;;;;25.00;14.47;;;;;;;;;;5071725;28;20654;-70
2021/01/16 05:21:07;;;;;;;25.20;13.77;;;;;;;;;;5085288;28;20264;-70
2021/01/16 05:23:33;;;;;;;24.37;14.73;;;;;;;;;;5076966;28;20655;-70
2021/01/16 05:25:59;;;;;;;24.03;14.10;;;;;;;;;;5087557;28;20211;-70
2021/01/16 05:28:25;;;;;;;25.90;14.07;;;;;;;;;;5075983;28;20184;-70
2021/01/16 05:31:01;;;;;;;25.47;14.33;;;;;;;;;;5087893;28;20208;-70
2021/01/16 05:33:39;;;;;;;21.87;13.87;;;;;;;;;;5072327;28;20245;-70
2021/01/16 05:36:07;;;;;;;30.57;15.83;;;;;;;;;;5070198;28;20647;-70
2021/01/16 05:38:41;;;;;;;29.90;16.17;;;;;;;;;;5057640;28;20700;-70
2021/01/16 05:41:09;;;;;;;28.03;16.03;;;;;;;;;;5084247;28;20881;-70
2021/01/16 05:43:36;;;;;;;24.50;15.03;;;;;;;;;;5074337;28;20188;-70
2021/01/16 05:46:04;;;;;;;27.73;15.43;;;;;;;;;;5086456;28;20203;-70
2021/01/16 05:48:31;;;;;;;27.70;16.10;;;;;;;;;;4380006;28;10000719;-70
2021/01/16 05:50:57;;;;;;;28.27;15.97;;;;;;;;;;5073036;28;20272;-70
2021/01/16 05:53:25;;;;;;;29.80;17.37;;;;;;;;;;5082489;28;20192;-70
2021/01/16 05:55:50;;;;;;;31.83;16.97;;;;;;;;;;5075489;28;20184;-70
2021/01/16 05:58:18;;;;;;;30.17;16.20;;;;;;;;;;5081908;28;20191;-71
2021/01/16 06:00:48;;;;;;;30.17;16.57;;;;;;;;;;5073507;28;20686;-70
2021/01/16 06:03:16;;;;;;;28.67;16.93;;;;;;;;;;5069932;28;20246;-70
2021/01/16 06:05:50;;;;;;;27.67;15.97;;;;;;;;;;5057388;28;20307;-70
2021/01/16 06:08:16;;;;;;;29.60;16.30;;;;;;;;;;5082691;28;20187;-70
2021/01/16 06:10:43;;;;;;;28.30;16.07;;;;;;;;;;5074838;28;20275;-70
2021/01/16 06:13:14;;;;;;;31.97;17.10;;;;;;;;;;5078296;28;20266;-70
2021/01/16 06:15:47;;;;;;;29.17;16.63;;;;;;;;;;5074356;28;20639;-70
2021/01/16 06:18:29;;;;;;;27.33;15.97;;;;;;;;;;5076055;28;20181;-70
2021/01/16 06:20:55;;;;;;;28.40;15.77;;;;;;;;;;5070411;28;20208;-71
2021/01/16 06:23:23;;;;;;;26.53;15.47;;;;;;;;;;5081899;28;20183;-71
2021/01/16 06:25:57;;;;;;;26.27;15.27;;;;;;;;;;5073812;28;25454;-71
2021/01/16 06:28:26;;;;;;;24.23;14.20;;;;;;;;;;5081221;28;20695;-71
2021/01/16 06:30:54;;;;;;;27.23;15.43;;;;;;;;;;5051534;28;20488;-71
2021/01/16 06:33:30;;;;;;;26.23;14.60;;;;;;;;;;5076498;28;20269;-71
2021/01/16 06:36:05;;;;;;;26.27;15.10;;;;;;;;;;5070256;28;20257;-71
2021/01/16 06:38:33;;;;;;;25.70;15.40;;;;;;;;;;5075380;28;20236;-71
2021/01/16 06:41:12;;;;;;;24.97;14.73;;;;;;;;;;5080543;28;20208;-71
2021/01/16 06:43:40;;;;;;;25.87;14.20;;;;;;;;;;5075410;28;20184;-71
2021/01/16 06:46:11;;;;;;;27.83;15.17;;;;;;;;;;5079497;28;20305;-71
2021/01/16 06:48:38;;;;;;;28.10;14.87;;;;;;;;;;5074449;28;20204;-71
2021/01/16 06:51:07;;;;;;;26.93;15.33;;;;;;;;;;5076617;28;20197;-71
2021/01/16 06:53:33;;;;;;;24.53;14.13;;;;;;;;;;5048031;28;20306;-71
2021/01/16 06:56:07;;;;;;;28.70;15.87;;;;;;;;;;5082693;28;20626;-70
2021/01/16 06:58:40;;;;;;;25.37;14.57;;;;;;;;;;5074159;28;20188;-70
2021/01/16 07:01:07;;;;;;;27.93;15.50;;;;;;;;;;5080492;28;20186;-70
2021/01/16 07:03:38;;;;;;;25.40;14.73;;;;;;;;;;5074490;28;20190;-71
2021/01/16 07:06:05;;;;;;;24.40;14.80;;;;;;;;;;5080116;28;20216;-71
2021/01/16 07:08:31;;;;;;;28.70;16.13;;;;;;;;;;5054843;28;20584;-71
2021/01/16 07:10:58;;;;;;;26.33;15.27;;;;;;;;;;5080473;28;20682;-70
2021/01/16 07:13:23;;;;;;;29.37;16.40;;;;;;;;;;5050541;28;20245;-71
2021/01/16 07:15:50;;;;;;;26.33;15.63;;;;;;;;;;5080102;28;20188;-71
2021/01/16 07:18:15;;;;;;;31.70;15.97;;;;;;;;;;5071186;28;20191;-71
2021/01/16 07:20:41;;;;;;;25.70;15.07;;;;;;;;;;5079085;28;20184;-71
2021/01/16 07:23:06;;;;;;;26.90;14.77;;;;;;;;;;5064125;28;21052;-71
2021/01/16 07:25:32;;;;;;;25.27;14.60;;;;;;;;;;5061717;28;20596;-71
2021/01/16 07:27:57;;;;;;;28.03;15.03;;;;;;;;;;5080830;28;20191;-71
2021/01/16 07:30:25;;;;;;;28.43;15.50;;;;;;;;;;5055927;28;20607;-71
2021/01/16 07:32:51;;;;;;;25.37;14.70;;;;;;;;;;5080743;28;20196;-71
2021/01/16 07:35:21;;;;;;;30.87;16.07;;;;;;;;;;5071640;28;20192;-71
2021/01/16 07:37:49;;;;;;;29.97;15.27;;;;;;;;;;5084048;28;20231;-71
2021/01/16 07:40:35;;;;;;;26.83;14.63;;;;;;;;;;5067782;28;20223;-71
2021/01/16 07:43:11;;;;;;;31.07;16.17;;;;;;;;;;5084107;28;20675;-71
2021/01/16 07:45:41;;;;;;;28.03;15.50;;;;;;;;;;5076198;28;20230;-71
2021/01/16 07:48:07;;;;;;;26.10;15.73;;;;;;;;;;5084231;28;20606;-71
2021/01/16 07:50:37;;;;;;;26.17;15.37;;;;;;;;;;5074307;28;20241;-70
2021/01/16 07:53:04;;;;;;;25.97;14.43;;;;;;;;;;5077014;28;20333;-71
2021/01/16 07:55:35;;;;;;;29.07;15.67;;;;;;;;;;5075925;28;20234;-71
2021/01/16 07:58:20;;;;;;;29.03;15.50;;;;;;;;;;5083973;28;20187;-70
2021/01/16 08:01:01;;;;;;;30.20;15.17;;;;;;;;;;5058449;28;20201;-71
2021/01/16 08:04:16;;;;;;;27.83;15.33;;;;;;;;;;5082702;28;20183;-71
2021/01/16 08:07:01;;;;;;;25.47;14.80;;;;;;;;;;5067237;28;20272;-71
2021/01/16 08:09:36;;;;;;;25.90;14.37;;;;;;;;;;5066053;28;20259;-70
2021/01/16 08:12:03;;;;;;;28.40;14.50;;;;;;;;;;5075642;28;20627;-70
2021/01/16 08:14:32;;;;;;;28.87;15.70;;;;;;;;;;5083496;28;20168;-70
2021/01/16 08:16:59;;;;;;;26.63;15.50;;;;;;;;;;5071967;28;20210;-71
2021/01/16 08:19:32;;;;;;;27.77;15.60;;;;;;;;;;5074464;28;20271;-71
2021/01/16 08:21:59;;;;;;;27.67;15.67;;;;;;;;;;5075986;28;20192;-71
2021/01/16 08:24:30;;;;;;;27.60;15.43;;;;;;;;;;5083218;28;20192;-70
2021/01/16 08:27:03;;;;;;;28.07;15.37;;;;;;;;;;5075547;28;20235;-71
2021/01/16 08:29:30;;;;;;;28.43;16.00;;;;;;;;;;5083676;28;21062;-70
2021/01/16 08:32:09;;;;;;;28.37;16.27;;;;;;;;;;5081326;28;20184;-70
2021/01/16 08:34:56;;;;;;;30.33;16.10;;;;;;;;;;5074025;28;20187;-71
2021/01/16 08:37:32;;;;;;;30.30;16.07;;;;;;;;;;5066383;28;20679;-71
2021/01/16 08:39:59;;;;;;;31.23;16.57;;;;;;;;;;5075323;28;20275;-71
2021/01/16 08:42:26;;;;;;;31.10;16.47;;;;;;;;;;5080154;28;20538;-72
2021/01/16 08:44:53;;;;;;;28.40;16.00;;;;;;;;;;5074176;28;20210;-71
2021/01/16 08:47:19;;;;;;;29.17;16.97;;;;;;;;;;5081239;28;20191;-71
2021/01/16 08:49:45;;;;;;;28.63;16.53;;;;;;;;;;5073004;28;20661;-71
2021/01/16 08:52:10;;;;;;;29.43;15.87;;;;;;;;;;5083588;28;20192;-71
2021/01/16 08:54:36;;;;;;;27.50;16.37;;;;;;;;;;5076027;28;20214;-71
2021/01/16 08:57:01;;;;;;;31.63;18.07;;;;;;;;;;5067020;28;20253;-71
2021/01/16 08:59:31;;;;;;;28.87;16.37;;;;;;;;;;5069324;28;20192;-71
2021/01/16 09:02:10;;;;;;;27.23;15.43;;;;;;;;;;5070410;28;20663;-71
2021/01/16 09:04:39;;;;;;;39.20;17.10;;;;;;;;;;5057079;28;20310;-72
2021/01/16 09:07:12;;;;;;;27.03;15.40;;;;;;;;;;5084414;28;20204;-71
2021/01/16 09:09:38;;;;;;;27.00;16.23;;;;;;;;;;5071432;28;20207;-71
2021/01/16 09:12:05;;;;;;;27.50;16.20;;;;;;;;;;5075670;28;20180;-71
2021/01/16 09:14:30;;;;;;;27.17;15.37;;;;;;;;;;5075129;28;20271;-71
2021/01/16 09:16:56;;;;;;;25.47;15.37;;;;;;;;;;5082089;28;20267;-69
2021/01/16 09:19:29;;;;;;;28.77;15.33;;;;;;;;;;5082755;28;20188;-71
2021/01/16 09:22:23;;;;;;;26.47;15.20;;;;;;;;;;5073668;28;20222;-70
2021/01/16 09:24:48;;;;;;;26.73;15.57;;;;;;;;;;5079648;28;20675;-72
2021/01/16 09:27:28;;;;;;;31.37;16.57;;;;;;;;;;5071950;28;20192;-71
2021/01/16 09:29:56;;;;;;;25.27;15.87;;;;;;;;;;5082307;28;20284;-70
2021/01/16 09:32:32;;;;;;;26.03;15.47;;;;;;;;;;5073504;28;20187;-70
2021/01/16 09:34:58;;;;;;;26.30;14.87;;;;;;;;;;5079626;28;20219;-70
2021/01/16 09:37:26;;;;;;;25.43;14.80;;;;;;;;;;5070813;28;20224;-70
2021/01/16 09:40:11;;;;;;;24.20;14.50;;;;;;;;;;5078729;28;20188;-70
2021/01/16 09:42:49;;;;;;;25.10;14.20;;;;;;;;;;5072086;28;20256;-70
2021/01/16 09:45:16;;;;;;;26.83;15.73;;;;;;;;;;5080499;28;20789;-70
2021/01/16 09:47:47;;;;;;;24.03;14.27;;;;;;;;;;5073693;28;20192;-71
2021/01/16 09:50:18;;;;;;;26.30;13.90;;;;;;;;;;5081874;28;20194;-71
2021/01/16 09:52:45;;;;;;;22.67;13.80;;;;;;;;;;5071469;28;20184;-70
2021/01/16 09:55:23;;;;;;;22.50;13.57;;;;;;;;;;5062429;28;20180;-70
2021/01/16 09:57:48;;;;;;;23.73;14.10;;;;;;;;;;5070212;28;20188;-70
2021/01/16 10:00:36;;;;;;;25.33;13.83;;;;;;;;;;5082860;28;20226;-70
2021/01/16 10:03:04;;;;;;;21.87;13.37;;;;;;;;;;5069859;28;20558;-69
2021/01/16 10:05:35;;;;;;;26.23;13.73;;;;;;;;;;5056834;28;20212;-71
2021/01/16 10:08:01;;;;;;;24.33;13.73;;;;;;;;;;5050764;28;20199;-71
2021/01/16 10:10:39;;;;;;;26.60;15.77;;;;;;;;;;5066797;28;20415;-72
2021/01/16 10:13:09;;;;;;;25.10;14.77;;;;;;;;;;5063415;28;20195;-72
2021/01/16 10:15:42;;;;;;;22.83;13.77;;;;;;;;;;5074975;28;20195;-71
2021/01/16 10:18:17;;;;;;;22.40;13.93;;;;;;;;;;5073911;28;20236;-71
2021/01/16 10:20:43;;;;;;;25.73;14.23;;;;;;;;;;5081363;28;20867;-71
2021/01/16 10:23:08;;;;;;;23.43;14.53;;;;;;;;;;5072062;28;20195;-72
2021/01/16 10:25:41;;;;;;;23.00;14.37;;;;;;;;;;5081166;28;20200;-72
2021/01/16 10:28:10;;;;;;;24.03;13.20;;;;;;;;;;5076548;28;20654;-72
2021/01/16 10:30:56;;;;;;;23.90;13.60;;;;;;;;;;5085625;28;20211;-71
2021/01/16 10:33:21;;;;;;;23.73;13.73;;;;;;;;;;5077499;28;20188;-72
2021/01/16 10:35:50;;;;;;;23.73;13.70;;;;;;;;;;5085281;28;20180;-72
2021/01/16 10:38:41;;;;;;;25.97;13.70;;;;;;;;;;5085847;28;20233;-72
2021/01/16 10:41:08;;;;;;;23.60;13.57;;;;;;;;;;5088703;28;20216;-71
2021/01/16 10:43:34;;;;;;;25.63;14.30;;;;;;;;;;5065872;28;20188;-72
2021/01/16 10:46:13;;;;;;;23.43;13.50;;;;;;;;;;5057704;28;20290;-72
2021/01/16 10:48:39;;;;;;;23.40;13.10;;;;;;;;;;5073521;28;20184;-72
2021/01/16 10:51:10;;;;;;;25.30;14.13;;;;;;;;;;5078592;28;20272;-72
2021/01/16 10:53:37;;;;;;;22.73;13.40;;;;;;;;;;5072071;28;20666;-72
2021/01/16 10:56:26;;;;;;;22.43;13.60;;;;;;;;;;5067283;28;20190;-72
2021/01/16 10:59:07;;;;;;;23.27;13.87;;;;;;;;;;5079041;28;20183;-72
2021/01/16 11:01:47;;;;;;;23.30;12.87;;;;;;;;;;4712608;28;10000321;-72
2021/01/16 11:04:26;;;;;;;24.27;13.83;;;;;;;;;;5080277;28;20176;-72
2021/01/16 11:06:55;;;;;;;23.37;13.30;;;;;;;;;;5070322;28;20249;-72
2021/01/16 11:09:35;;;;;;;23.83;13.57;;;;;;;;;;5080982;28;20187;-72
2021/01/16 11:12:04;;;;;;;20.73;13.10;;;;;;;;;;5069318;28;20546;-72
2021/01/16 11:14:39;;;;;;;23.63;14.13;;;;;;;;;;5084858;28;20194;-72
2021/01/16 11:17:06;;;;;;;23.47;13.20;;;;;;;;;;5073720;28;20321;-72
2021/01/16 11:19:38;;;;;;;26.47;13.90;;;;;;;;;;5087289;28;20179;-72
2021/01/16 11:22:10;;;;;;;25.10;13.50;;;;;;;;;;5077418;28;20635;-72
2021/01/16 11:24:48;;;;;;;24.53;13.60;;;;;;;;;;5085347;28;20211;-72
2021/01/16 11:27:16;;;;;;;24.83;14.73;;;;;;;;;;5077528;28;20657;-71
2021/01/16 11:29:44;;;;;;;22.03;13.23;;;;;;;;;;5088577;28;20192;-71
2021/01/16 11:32:20;;;;;;;28.27;14.10;;;;;;;;;;5079485;28;20184;-72
2021/01/16 11:35:11;;;;;;;23.23;13.87;;;;;;;;;;5088157;28;20188;-73
2021/01/16 11:37:49;;;;;;;24.87;14.03;;;;;;;;;;5076672;28;20220;-73
2021/01/16 11:40:27;;;;;;;25.50;14.47;;;;;;;;;;5086894;28;20249;-72
2021/01/16 11:42:55;;;;;;;25.90;14.50;;;;;;;;;;5080200;28;20195;-72
2021/01/16 11:45:22;;;;;;;23.83;13.83;;;;;;;;;;5089242;28;20592;-71
2021/01/16 11:47:53;;;;;;;28.43;14.03;;;;;;;;;;5076697;28;20594;-71
2021/01/16 11:50:20;;;;;;;26.33;14.20;;;;;;;;;;5089758;28;20184;-72
2021/01/16 11:52:46;;;;;;;23.00;13.77;;;;;;;;;;5079164;28;20262;-72
2021/01/16 11:55:12;;;;;;;23.73;14.93;;;;;;;;;;5089089;28;20271;-72
2021/01/16 11:57:39;;;;;;;24.00;14.60;;;;;;;;;;5074972;28;20200;-72
2021/01/16 12:00:06;;;;;;;23.50;14.40;;;;;;;;;;5073147;28;20745;-72
2021/01/16 12:02:32;;;;;;;26.10;14.20;;;;;;;;;;5052283;28;20186;-72
2021/01/16 12:04:58;;;;;;;26.10;14.43;;;;;;;;;;5087680;28;20208;-72
2021/01/16 12:07:25;;;;;;;28.80;14.10;;;;;;;;;;5070987;28;20180;-72
2021/01/16 12:09:51;;;;;;;24.40;13.83;;;;;;;;;;5076454;28;20223;-72
2021/01/16 12:12:17;;;;;;;23.13;13.27;;;;;;;;;;5088715;28;20180;-72
2021/01/16 12:14:43;;;;;;;25.67;15.13;;;;;;;;;;4721481;28;10000106;-72
2021/01/16 12:17:10;;;;;;;26.70;14.67;;;;;;;;;;5086899;28;20188;-72
2021/01/16 12:19:36;;;;;;;25.47;14.50;;;;;;;;;;5066245;28;20193;-72
2021/01/16 12:22:11;;;;;;;23.90;14.67;;;;;;;;;;5060445;28;20583;-72
2021/01/16 12:24:37;;;;;;;27.47;15.03;;;;;;;;;;5073652;28;20377;-72
2021/01/16 12:27:05;;;;;;;25.20;14.47;;;;;;;;;;5085302;28;20254;-72
2021/01/16 12:29:37;;;;;;;24.83;14.90;;;;;;;;;;5074008;28;20192;-72
2021/01/16 12:32:05;;;;;;;24.33;14.50;;;;;;;;;;5083108;28;20180;-72
2021/01/16 12:34:31;;;;;;;28.93;15.47;;;;;;;;;;5078701;28;20554;-72
2021/01/16 12:36:57;;;;;;;25.13;14.03;;;;;;;;;;5091712;28;20647;-72
2021/01/16 12:39:22;;;;;;;23.33;13.73;;;;;;;;;;5063306;28;20237;-72
2021/01/16 12:41:49;;;;;;;25.50;15.03;;;;;;;;;;5088145;28;20188;-72
2021/01/16 12:44:21;;;;;;;25.87;15.43;;;;;;;;;;5088133;28;20205;-71
2021/01/16 12:46:46;;;;;;;26.57;15.47;;;;;;;;;;5074779;28;20191;-72
2021/01/16 12:49:13;;;;;;;25.23;14.90;;;;;;;;;;5085368;28;20258;-72
2021/01/16 12:51:40;;;;;;;25.93;14.60;;;;;;;;;;5075360;28;20183;-72
2021/01/16 12:54:12;;;;;;;23.30;14.20;;;;;;;;;;5087213;28;20314;-72
2021/01/16 12:56:39;;;;;;;27.70;14.57;;;;;;;;;;5081306;28;20650;-72
2021/01/16 12:59:05;;;;;;;27.33;14.90;;;;;;;;;;5078497;28;20275;-72
2021/01/16 13:01:33;;;;;;;24.43;14.70;;;;;;;;;;5077671;28;20279;-72
2021/01/16 13:04:00;;;;;;;23.33;14.17;;;;;;;;;;5086434;28;20230;-72
2021/01/16 13:06:26;;;;;;;28.20;14.20;;;;;;;;;;5077611;28;20208;-72
2021/01/16 13:08:56;;;;;;;25.07;13.83;;;;;;;;;;5087770;28;20267;-72
2021/01/16 13:11:24;;;;;;;23.43;14.43;;;;;;;;;;5080582;28;20192;-72
2021/01/16 13:13:55;;;;;;;27.67;15.10;;;;;;;;;;5088101;28;20191;-72
2021/01/16 13:16:23;;;;;;;24.57;14.60;;;;;;;;;;5081111;28;20189;-72
2021/01/16 13:18:49;;;;;;;24.50;14.40;;;;;;;;;;5084247;28;20204;-72
2021/01/16 13:21:15;;;;;;;23.53;13.37;;;;;;;;;;5082298;28;20201;-71
2021/01/16 13:23:44;;;;;;;22.63;13.33;;;;;;;;;;5066755;28;20552;-72
2021/01/16 13:26:11;;;;;;;21.80;13.77;;;;;;;;;;5084946;28;20204;-71
2021/01/16 13:28:42;;;;;;;22.77;13.73;;;;;;;;;;5075979;28;20295;-72
2021/01/16 13:31:09;;;;;;;20.27;12.63;;;;;;;;;;5075153;28;20624;-71
2021/01/16 13:33:34;;;;;;;21.53;13.03;;;;;;;;;;5052893;28;20195;-72
2021/01/16 13:36:11;;;;;;;23.13;13.50;;;;;;;;;;5083684;28;20176;-72
2021/01/16 13:38:37;;;;;;;24.00;13.93;;;;;;;;;;5073876;28;20318;-72
2021/01/16 13:41:06;;;;;;;23.27;13.20;;;;;;;;;;5083815;28;20203;-72
2021/01/16 13:43:38;;;;;;;24.17;14.00;;;;;;;;;;5075424;28;20191;-72
2021/01/16 13:46:04;;;;;;;29.00;15.53;;;;;;;;;;5081929;28;20208;-72
2021/01/16 13:48:50;;;;;;;23.57;14.47;;;;;;;;;;5075694;28;20183;-72
2021/01/16 13:51:33;;;;;;;27.60;16.43;;;;;;;;;;5087391;28;20230;-72
2021/01/16 13:54:00;;;;;;;28.53;16.90;;;;;;;;;;5078168;28;20199;-72
2021/01/16 13:56:28;;;;;;;29.27;16.63;;;;;;;;;;5068885;28;20192;-71
2021/01/16 13:58:54;;;;;;;29.53;16.87;;;;;;;;;;5076660;28;20203;-72
2021/01/16 14:01:37;;;;;;;30.97;17.43;;;;;;;;;;5078601;28;20550;-73
2021/01/16 14:04:10;;;;;;;27.50;16.73;;;;;;;;;;5063804;28;20192;-72
2021/01/16 14:06:59;;;;;;;27.10;16.07;;;;;;;;;;5084187;28;20611;-72
2021/01/16 14:09:29;;;;;;;26.97;16.17;;;;;;;;;;5071869;28;20192;-72
2021/01/16 14:11:58;;;;;;;25.60;15.57;;;;;;;;;;5089121;28;20172;-72
2021/01/16 14:14:32;;;;;;;27.77;16.00;;;;;;;;;;5057966;28;20193;-72
2021/01/16 14:17:23;;;;;;;28.17;16.30;;;;;;;;;;5088233;28;20182;-72
2021/01/16 14:20:07;;;;;;;24.33;15.50;;;;;;;;;;5076100;28;20574;-73
2021/01/16 14:22:40;;;;;;;28.23;14.93;;;;;;;;;;5087118;28;20191;-73
2021/01/16 14:25:13;;;;;;;22.33;13.63;;;;;;;;;;5077812;28;20204;-73
2021/01/16 14:27:44;;;;;;;22.87;13.73;;;;;;;;;;5080648;28;20191;-72
2021/01/16 14:30:11;;;;;;;24.37;13.77;;;;;;;;;;5060395;28;20219;-73